Time;durP1;ratioP1;P1;durP2;ratioP2;P2;SDS_P1;SDS_P2;PMS_P1;PMS_P2;Temp;Humidity;BMP_temperature;BMP_pressure;BME280_temperature;BME280_humidity;BME280_pressure;Samples;Min_cycle;Max_cycle;Signal;HPM_P1;HPM_P2
2022/05/13 00:01:10;;;;;;;;;;;;;;;;;;5034058;28;19924;-78
2022/05/13 00:03:38;;;;;;;;;;;;;;;;;;5034750;28;19917;-79
2022/05/13 00:06:04;;;;;;;;;;;;;;;;;;5034873;28;19989;-81
2022/05/13 00:08:29;;;;;;;;;;;;;;;;;;5036459;28;19947;-79
2022/05/13 00:10:55;;;;;;;;;;;;;;;;;;5029873;28;19949;-81
2022/05/13 00:13:20;;;;;;;;;;;;;;;;;;5033402;28;20168;-78
2022/05/13 00:15:46;;;;;;;;;;;;;;;;;;5031162;28;19918;-79
2022/05/13 00:18:12;;;;;;;;;;;;;;;;;;5033891;28;19920;-78
2022/05/13 00:20:37;;;;;;;;;;;;;;;;;;5033122;28;19929;-80
2022/05/13 00:23:03;;;;;;;;;;;;;;;;;;5035291;28;20039;-77
2022/05/13 00:25:30;;;;;;;;;;;;;;;;;;5032181;28;19917;-78
2022/05/13 00:27:56;;;;;;;;;;;;;;;;;;5036529;28;19916;-80
2022/05/13 00:30:22;;;;;;;;;;;;;;;;;;5036225;28;19948;-79
2022/05/13 00:32:49;;;;;;;;;;;;;;;;;;5039661;28;20328;-79
2022/05/13 00:35:14;;;;;;;;;;;;;;;;;;5037869;28;19917;-78
2022/05/13 00:37:39;;;;;;;;;;;;;;;;;;5022470;28;20376;-78
2022/05/13 00:40:05;;;;;;;;;;;;;;;;;;5031188;28;20269;-78
2022/05/13 00:42:30;;;;;;;;;;;;;;;;;;5033459;28;19928;-79
2022/05/13 00:44:58;;;;;;;;;;;;;;;;;;5032436;28;19917;-79
2022/05/13 00:47:23;;;;;;;;;;;;;;;;;;5024397;28;19944;-77
2022/05/13 00:49:49;;;;;;;;;;;;;;;;;;5026336;28;19948;-79
2022/05/13 00:52:15;;;;;;;;;;;;;;;;;;5031488;28;20039;-78
2022/05/13 00:54:41;;;;;;;;;;;;;;;;;;5032005;28;19972;-77
2022/05/13 00:57:07;;;;;;;;;;;;;;;;;;5026813;28;20045;-78
2022/05/13 00:59:33;;;;;;;;;;;;;;;;;;5024640;28;20023;-77
2022/05/13 01:01:59;;;;;;;;;;;;;;;;;;5026042;28;19922;-78
2022/05/13 01:04:24;;;;;;;;;;;;;;;;;;5030768;28;19924;-79
2022/05/13 01:06:58;;;;;;;;;;;;;;;;;;5034657;28;19913;-78
2022/05/13 01:09:29;;;;;;;;;;;;;;;;;;5055222;28;19949;-77
2022/05/13 01:11:57;;;;;;;;;;;;;;;;;;5056581;28;19932;-77
2022/05/13 01:14:33;;;;;;;;;;;;;;;;;;5042548;28;19921;-81
2022/05/13 01:20:01;;;;;;;;;;;;;;;;;;5039077;28;20405;-80
2022/05/13 01:22:26;;;;;;;;;;;;;;;;;;5038957;28;19921;-80
2022/05/13 01:24:52;;;;;;;;;;;;;;;;;;5045915;28;19924;-79
2022/05/13 01:27:17;;;;;;;;;;;;;;;;;;5047783;28;20729;-77
2022/05/13 01:29:43;;;;;;;;;;;;;;;;;;5042060;28;20575;-80
2022/05/13 01:32:08;;;;;;;;;;;;;;;;;;5041531;28;19916;-78
2022/05/13 01:34:36;;;;;;;;;;;;;;;;;;5040768;28;20392;-79
2022/05/13 01:37:02;;;;;;;;;;;;;;;;;;5040574;28;19925;-79
2022/05/13 01:39:27;;;;;;;;;;;;;;;;;;5034586;28;19940;-78
2022/05/13 01:41:53;;;;;;;;;;;;;;;;;;5038591;28;19947;-79
2022/05/13 01:44:19;;;;;;;;;;;;;;;;;;5041155;28;19917;-80
2022/05/13 01:46:44;;;;;;;;;;;;;;;;;;5038959;28;20020;-78
2022/05/13 01:49:10;;;;;;;;;;;;;;;;;;5040394;28;19996;-76
2022/05/13 01:51:35;;;;;;;;;;;;;;;;;;5042043;28;20059;-77
2022/05/13 01:54:01;;;;;;;;;;;;;;;;;;5031471;28;20005;-79
2022/05/13 01:56:26;;;;;;;;;;;;;;;;;;5039534;28;19929;-78
2022/05/13 01:58:51;;;;;;;;;;;;;;;;;;5036963;28;19921;-78
2022/05/13 02:01:17;;;;;;;;;;;;;;;;;;5042667;28;20396;-78
2022/05/13 02:03:45;;;;;;;;;;;;;;;;;;5038713;28;19917;-78
2022/05/13 02:06:18;;;;;;;;;;;;;;;;;;5047673;28;19920;-78
2022/05/13 02:08:43;;;;;;;;;;;;;;;;;;5041918;28;19917;-79
2022/05/13 02:11:09;;;;;;;;;;;;;;;;;;5038259;28;20370;-78
2022/05/13 02:13:37;;;;;;;;;;;;;;;;;;5043786;28;19929;-79
2022/05/13 02:16:03;;;;;;;;;;;;;;;;;;5044623;28;19917;-79
2022/05/13 02:18:28;;;;;;;;;;;;;;;;;;5046035;28;19921;-79
2022/05/13 02:20:55;;;;;;;;;;;;;;;;;;5040776;28;19917;-79
2022/05/13 02:23:21;;;;;;;;;;;;;;;;;;5039540;28;19917;-80
2022/05/13 02:25:47;;;;;;;;;;;;;;;;;;5045642;28;19926;-79
2022/05/13 02:28:12;;;;;;;;;;;;;;;;;;5040996;28;19981;-78
2022/05/13 02:30:38;;;;;;;;;;;;;;;;;;5040305;28;19920;-79
2022/05/13 02:33:03;;;;;;;;;;;;;;;;;;5042441;28;19924;-78
2022/05/13 02:35:28;;;;;;;;;;;;;;;;;;5037641;28;20292;-78
2022/05/13 02:37:54;;;;;;;;;;;;;;;;;;5052763;28;19917;-82
2022/05/13 02:41:11;;;;;;;;;;;;;;;;;;5036877;28;19929;-80
2022/05/13 02:43:12;;;;;;;;;;;;;;;;;;5035329;28;19921;-81
2022/05/13 02:45:37;;;;;;;;;;;;;;;;;;5036496;28;19924;-79
2022/05/13 02:48:03;;;;;;;;;;;;;;;;;;5037044;28;19917;-78
2022/05/13 02:50:28;;;;;;;;;;;;;;;;;;5040215;28;20372;-78
2022/05/13 02:52:54;;;;;;;;;;;;;;;;;;5042077;28;19962;-78
2022/05/13 02:55:21;;;;;;;;;;;;;;;;;;5040264;28;19913;-80
2022/05/13 02:57:47;;;;;;;;;;;;;;;;;;5040525;28;19924;-78
2022/05/13 03:00:12;;;;;;;;;;;;;;;;;;5029534;28;19917;-80
2022/05/13 03:02:38;;;;;;;;;;;;;;;;;;5031314;28;19986;-80
2022/05/13 03:05:03;;;;;;;;;;;;;;;;;;5042509;28;19988;-78
2022/05/13 03:07:29;;;;;;;;;;;;;;;;;;5044026;28;19917;-77
2022/05/13 03:09:54;;;;;;;;;;;;;;;;;;5030896;28;19925;-79
2022/05/13 03:12:22;;;;;;;;;;;;;;;;;;5037047;28;19928;-80
2022/05/13 03:14:48;;;;;;;;;;;;;;;;;;5032089;28;19928;-77
2022/05/13 03:17:15;;;;;;;;;;;;;;;;;;5035715;28;20592;-80
2022/05/13 03:19:40;;;;;;;;;;;;;;;;;;5040379;28;20015;-79
2022/05/13 03:22:06;;;;;;;;;;;;;;;;;;5035318;28;19971;-78
2022/05/13 03:24:32;;;;;;;;;;;;;;;;;;5035959;28;19925;-78
2022/05/13 03:27:00;;;;;;;;;;;;;;;;;;5032561;28;19921;-79
2022/05/13 03:29:25;;;;;;;;;;;;;;;;;;5052409;28;20012;-77
2022/05/13 03:31:50;;;;;;;;;;;;;;;;;;5036947;28;20379;-78
2022/05/13 03:34:16;;;;;;;;;;;;;;;;;;5029899;28;20022;-78
2022/05/13 03:36:41;;;;;;;;;;;;;;;;;;5036203;28;19974;-77
2022/05/13 03:39:07;;;;;;;;;;;;;;;;;;5032978;28;19966;-78
2022/05/13 03:41:33;;;;;;;;;;;;;;;;;;5033536;28;20020;-78
2022/05/13 03:43:58;;;;;;;;;;;;;;;;;;5033875;28;20021;-79
2022/05/13 03:46:25;;;;;;;;;;;;;;;;;;5038455;28;20505;-78
2022/05/13 03:48:53;;;;;;;;;;;;;;;;;;5028830;28;19917;-78
2022/05/13 03:51:18;;;;;;;;;;;;;;;;;;5032500;28;19928;-79
2022/05/13 03:53:43;;;;;;;;;;;;;;;;;;5031275;28;20016;-80
2022/05/13 03:56:09;;;;;;;;;;;;;;;;;;5039243;28;19968;-79
2022/05/13 03:58:34;;;;;;;;;;;;;;;;;;5034361;28;19917;-81
2022/05/13 04:01:02;;;;;;;;;;;;;;;;;;5040061;28;20000;-79
2022/05/13 04:03:28;;;;;;;;;;;;;;;;;;5034630;28;19917;-79
2022/05/13 04:11:21;;;;;;;;;;;;;;;;;;5034680;28;20052;-79
2022/05/13 04:16:31;;;;;;;;;;;;;;;;;;5038784;28;19971;-80
2022/05/13 04:18:58;;;;;;;;;;;;;;;;;;5040325;28;19917;-78
2022/05/13 04:21:25;;;;;;;;;;;;;;;;;;5038278;28;19921;-79
2022/05/13 04:23:51;;;;;;;;;;;;;;;;;;5033774;28;19917;-78
2022/05/13 04:26:20;;;;;;;;;;;;;;;;;;5038438;28;19952;-77
2022/05/13 04:28:46;;;;;;;;;;;;;;;;;;5041257;28;20019;-79
2022/05/13 04:31:12;;;;;;;;;;;;;;;;;;5034534;28;19960;-79
2022/05/13 04:33:42;;;;;;;;;;;;;;;;;;5035612;28;19932;-79
2022/05/13 04:36:10;;;;;;;;;;;;;;;;;;5035269;28;19919;-80
2022/05/13 04:38:36;;;;;;;;;;;;;;;;;;5052405;28;19917;-78
2022/05/13 04:42:49;;;;;;;;;;;;;;;;;;5032288;28;19984;-76
2022/05/13 04:43:47;;;;;;;;;;;;;;;;;;5037619;28;19928;-78
2022/05/13 04:46:13;;;;;;;;;;;;;;;;;;5038798;28;19917;-79
2022/05/13 04:48:38;;;;;;;;;;;;;;;;;;5038523;28;19998;-78
2022/05/13 04:51:04;;;;;;;;;;;;;;;;;;5033069;28;19925;-78
2022/05/13 04:53:31;;;;;;;;;;;;;;;;;;5031856;28;20011;-77
2022/05/13 04:55:57;;;;;;;;;;;;;;;;;;5031569;28;19913;-79
2022/05/13 04:58:23;;;;;;;;;;;;;;;;;;5033960;28;19917;-77
2022/05/13 05:00:49;;;;;;;;;;;;;;;;;;5036033;28;19917;-78
2022/05/13 05:03:20;;;;;;;;;;;;;;;;;;5029856;28;20362;-78
2022/05/13 05:05:46;;;;;;;;;;;;;;;;;;5032721;28;20011;-77
2022/05/13 05:08:12;;;;;;;;;;;;;;;;;;5031090;28;19964;-78
2022/05/13 05:10:37;;;;;;;;;;;;;;;;;;5034003;28;20293;-78
2022/05/13 05:13:03;;;;;;;;;;;;;;;;;;5037653;28;20065;-78
2022/05/13 05:15:31;;;;;;;;;;;;;;;;;;5031121;28;19921;-77
2022/05/13 05:17:56;;;;;;;;;;;;;;;;;;5034254;28;19917;-78
2022/05/13 05:20:21;;;;;;;;;;;;;;;;;;5032761;28;19932;-77
2022/05/13 05:22:47;;;;;;;;;;;;;;;;;;5040612;28;19925;-77
2022/05/13 05:25:16;;;;;;;;;;;;;;;;;;5031991;28;19917;-77
2022/05/13 05:27:42;;;;;;;;;;;;;;;;;;5031720;28;20095;-77
2022/05/13 05:30:08;;;;;;;;;;;;;;;;;;5025328;28;20008;-76
2022/05/13 05:32:33;;;;;;;;;;;;;;;;;;5034381;28;19917;-77
2022/05/13 05:34:59;;;;;;;;;;;;;;;;;;5028652;28;20411;-77
2022/05/13 05:37:24;;;;;;;;;;;;;;;;;;5032938;28;20312;-77
2022/05/13 05:39:50;;;;;;;;;;;;;;;;;;5031200;28;19924;-79
2022/05/13 05:42:15;;;;;;;;;;;;;;;;;;5031479;28;20005;-77
2022/05/13 05:44:40;;;;;;;;;;;;;;;;;;5034208;28;19932;-80
2022/05/13 05:47:06;;;;;;;;;;;;;;;;;;5033291;28;19917;-78
2022/05/13 05:49:31;;;;;;;;;;;;;;;;;;5031102;28;19921;-78
2022/05/13 05:51:56;;;;;;;;;;;;;;;;;;5034141;28;19951;-79
2022/05/13 05:57:15;;;;;;;;;;;;;;;;;;5030743;28;19928;-79
2022/05/13 05:59:46;;;;;;;;;;;;;;;;;;5025416;28;19987;-78
2022/05/13 06:02:12;;;;;;;;;;;;;;;;;;5049924;28;19983;-78
2022/05/13 06:04:38;;;;;;;;;;;;;;;;;;5034433;28;19994;-78
2022/05/13 06:07:08;;;;;;;;;;;;;;;;;;5032761;28;19924;-78
2022/05/13 06:09:33;;;;;;;;;;;;;;;;;;5030719;28;19967;-78
2022/05/13 06:11:59;;;;;;;;;;;;;;;;;;5038923;28;19921;-78
2022/05/13 06:14:25;;;;;;;;;;;;;;;;;;5037205;28;19924;-78
2022/05/13 06:16:51;;;;;;;;;;;;;;;;;;5032674;28;19914;-75
2022/05/13 06:19:16;;;;;;;;;;;;;;;;;;5030786;28;19940;-79
2022/05/13 06:21:42;;;;;;;;;;;;;;;;;;5046098;28;19929;-77
2022/05/13 06:24:07;;;;;;;;;;;;;;;;;;5026728;28;19967;-79
2022/05/13 06:26:34;;;;;;;;;;;;;;;;;;5032673;28;19923;-78
2022/05/13 06:29:00;;;;;;;;;;;;;;;;;;5031210;28;19941;-77
2022/05/13 06:31:25;;;;;;;;;;;;;;;;;;5031691;28;19917;-77
2022/05/13 06:33:51;;;;;;;;;;;;;;;;;;5043776;28;19932;-79
2022/05/13 06:36:16;;;;;;;;;;;;;;;;;;5026796;28;19948;-80
2022/05/13 06:38:42;;;;;;;;;;;;;;;;;;5032028;28;19921;-80
2022/05/13 06:41:07;;;;;;;;;;;;;;;;;;5033820;28;20380;-80
2022/05/13 06:43:35;;;;;;;;;;;;;;;;;;5032156;28;19940;-79
2022/05/13 06:46:00;;;;;;;;;;;;;;;;;;5030290;28;19917;-79
2022/05/13 06:48:26;;;;;;;;;;;;;;;;;;5024851;28;19928;-78
2022/05/13 06:50:51;;;;;;;;;;;;;;;;;;5028164;28;19966;-78
2022/05/13 06:53:18;;;;;;;;;;;;;;;;;;5028048;28;20000;-79
2022/05/13 06:55:44;;;;;;;;;;;;;;;;;;5029614;28;19917;-80
2022/05/13 06:58:10;;;;;;;;;;;;;;;;;;5033458;28;19923;-80
2022/05/13 07:00:36;;;;;;;;;;;;;;;;;;5025502;28;20539;-80
2022/05/13 07:03:04;;;;;;;;;;;;;;;;;;5036091;28;19940;-79
2022/05/13 07:05:30;;;;;;;;;;;;;;;;;;5028217;28;20016;-79
2022/05/13 07:07:55;;;;;;;;;;;;;;;;;;5032892;28;20015;-79
2022/05/13 07:10:20;;;;;;;;;;;;;;;;;;5035799;28;19971;-81
2022/05/13 07:12:46;;;;;;;;;;;;;;;;;;5033004;28;19925;-83
2022/05/13 07:15:15;;;;;;;;;;;;;;;;;;5038230;28;20363;-81
2022/05/13 07:17:42;;;;;;;;;;;;;;;;;;5033391;28;19917;-83
2022/05/13 07:20:08;;;;;;;;;;;;;;;;;;5031055;28;20019;-84
2022/05/13 07:22:36;;;;;;;;;;;;;;;;;;5032266;28;19921;-80
2022/05/13 07:25:03;;;;;;;;;;;;;;;;;;5034314;28;19920;-81
2022/05/13 07:27:29;;;;;;;;;;;;;;;;;;5032700;28;19917;-82
2022/05/13 07:29:54;;;;;;;;;;;;;;;;;;5031304;28;20212;-79
2022/05/13 07:32:19;;;;;;;;;;;;;;;;;;5024890;28;19936;-80
2022/05/13 07:34:47;;;;;;;;;;;;;;;;;;5028497;28;19928;-81
2022/05/13 07:37:12;;;;;;;;;;;;;;;;;;5028014;28;19920;-81
2022/05/13 07:42:22;;;;;;;;;;;;;;;;;;5030137;28;19932;-80
2022/05/13 07:44:47;;;;;;;;;;;;;;;;;;5028633;28;19935;-81
2022/05/13 07:47:14;;;;;;;;;;;;;;;;;;5048763;28;20740;-79
2022/05/13 07:49:42;;;;;;;;;;;;;;;;;;5026499;28;19952;-81
2022/05/13 07:52:08;;;;;;;;;;;;;;;;;;5026413;28;19925;-82
2022/05/13 07:54:36;;;;;;;;;;;;;;;;;;5051327;28;20488;-81
2022/05/13 07:57:02;;;;;;;;;;;;;;;;;;5034939;28;19921;-81
2022/05/13 07:59:28;;;;;;;;;;;;;;;;;;5026870;28;19921;-82
2022/05/13 08:01:56;;;;;;;;;;;;;;;;;;5028123;28;19921;-78
2022/05/13 08:04:21;;;;;;;;;;;;;;;;;;5033177;28;20156;-80
2022/05/13 08:06:47;;;;;;;;;;;;;;;;;;5025737;28;19956;-80
2022/05/13 08:09:12;;;;;;;;;;;;;;;;;;5031320;28;19924;-80
2022/05/13 08:11:37;;;;;;;;;;;;;;;;;;5033404;28;19950;-80
2022/05/13 08:14:03;;;;;;;;;;;;;;;;;;5033102;28;19917;-80
2022/05/13 08:16:29;;;;;;;;;;;;;;;;;;5032339;28;20308;-82
2022/05/13 08:18:56;;;;;;;;;;;;;;;;;;5029751;28;20027;-82
2022/05/13 08:21:21;;;;;;;;;;;;;;;;;;5038444;28;20284;-80
2022/05/13 08:23:47;;;;;;;;;;;;;;;;;;5030131;28;19964;-82
2022/05/13 08:26:12;;;;;;;;;;;;;;;;;;5037362;28;19927;-79
2022/05/13 08:28:38;;;;;;;;;;;;;;;;;;5033481;28;19944;-78
2022/05/13 08:31:03;;;;;;;;;;;;;;;;;;5031794;28;19944;-81
2022/05/13 08:33:29;;;;;;;;;;;;;;;;;;5031761;28;20403;-81
2022/05/13 08:35:59;;;;;;;;;;;;;;;;;;5027196;28;20371;-79
2022/05/13 08:38:29;;;;;;;;;;;;;;;;;;5032082;28;19936;-81
2022/05/13 08:41:17;;;;;;;;;;;;;;;;;;5042001;28;19952;-80
2022/05/13 08:43:45;;;;;;;;;;;;;;;;;;5029588;28;19925;-79
2022/05/13 08:46:16;;;;;;;;;;;;;;;;;;5032582;28;19978;-79
2022/05/13 08:48:56;;;;;;;;;;;;;;;;;;5027460;28;19921;-82
2022/05/13 08:51:31;;;;;;;;;;;;;;;;;;5026778;28;19974;-80
2022/05/13 08:54:04;;;;;;;;;;;;;;;;;;5031249;28;19914;-78
2022/05/13 08:56:30;;;;;;;;;;;;;;;;;;5029577;28;19968;-82
2022/05/13 08:59:01;;;;;;;;;;;;;;;;;;5044476;28;19918;-80
2022/05/13 09:01:35;;;;;;;;;;;;;;;;;;5032895;28;19956;-79
2022/05/13 09:04:12;;;;;;;;;;;;;;;;;;5026095;28;20014;-82
2022/05/13 09:06:51;;;;;;;;;;;;;;;;;;5045547;28;19917;-80
2022/05/13 09:09:16;;;;;;;;;;;;;;;;;;5026389;28;19921;-80
2022/05/13 09:11:45;;;;;;;;;;;;;;;;;;5034658;28;19939;-80
2022/05/13 09:14:29;;;;;;;;;;;;;;;;;;5030349;28;20293;-80
2022/05/13 09:17:13;;;;;;;;;;;;;;;;;;5026016;28;19924;-79
2022/05/13 09:19:50;;;;;;;;;;;;;;;;;;5027644;28;19921;-80
2022/05/13 09:22:16;;;;;;;;;;;;;;;;;;5037341;28;20183;-78
2022/05/13 09:24:41;;;;;;;;;;;;;;;;;;5045950;28;20054;-79
2022/05/13 09:27:07;;;;;;;;;;;;;;;;;;5031131;28;19998;-82
2022/05/13 09:29:39;;;;;;;;;;;;;;;;;;5032671;28;19956;-80
2022/05/13 09:32:07;;;;;;;;;;;;;;;;;;5031417;28;20466;-81
2022/05/13 09:34:40;;;;;;;;;;;;;;;;;;5035586;28;20310;-81
2022/05/13 09:37:08;;;;;;;;;;;;;;;;;;5030415;28;19917;-80
2022/05/13 09:39:35;;;;;;;;;;;;;;;;;;5032306;28;19917;-79
2022/05/13 09:42:27;;;;;;;;;;;;;;;;;;5034930;28;19923;-80
2022/05/13 09:45:09;;;;;;;;;;;;;;;;;;5029830;28;19917;-80
2022/05/13 09:47:35;;;;;;;;;;;;;;;;;;5036715;28;19996;-81
2022/05/13 09:50:03;;;;;;;;;;;;;;;;;;5035117;28;19972;-80
2022/05/13 09:52:35;;;;;;;;;;;;;;;;;;5031795;28;20363;-80
2022/05/13 09:55:11;;;;;;;;;;;;;;;;;;5036833;28;20407;-80
2022/05/13 09:57:37;;;;;;;;;;;;;;;;;;5052017;28;19913;-78
2022/05/13 10:00:14;;;;;;;;;;;;;;;;;;5031643;28;19920;-78
2022/05/13 10:02:41;;;;;;;;;;;;;;;;;;5028939;28;19956;-81
2022/05/13 10:05:15;;;;;;;;;;;;;;;;;;5030029;28;19947;-82
2022/05/13 10:07:44;;;;;;;;;;;;;;;;;;5037235;28;19964;-78
2022/05/13 10:15:50;;;;;;;;;;;;;;;;;;5035765;28;20506;-79
2022/05/13 10:18:31;;;;;;;;;;;;;;;;;;5035815;28;19948;-79
2022/05/13 10:21:17;;;;;;;;;;;;;;;;;;5036572;28;19924;-82
2022/05/13 10:23:50;;;;;;;;;;;;;;;;;;5037838;28;20375;-79
2022/05/13 10:26:17;;;;;;;;;;;;;;;;;;5030206;28;20013;-82
2022/05/13 10:28:52;;;;;;;;;;;;;;;;;;5031619;28;19921;-79
2022/05/13 10:31:20;;;;;;;;;;;;;;;;;;5030604;28;19921;-82
2022/05/13 10:34:03;;;;;;;;;;;;;;;;;;5048856;28;19925;-81
2022/05/13 10:36:40;;;;;;;;;;;;;;;;;;5030512;28;19917;-80
2022/05/13 10:39:13;;;;;;;;;;;;;;;;;;5029404;28;19917;-79
2022/05/13 10:41:44;;;;;;;;;;;;;;;;;;5026286;28;19916;-79
2022/05/13 10:44:14;;;;;;;;;;;;;;;;;;5026642;28;19922;-81
2022/05/13 10:46:57;;;;;;;;;;;;;;;;;;5031608;28;20004;-81
2022/05/13 10:49:34;;;;;;;;;;;;;;;;;;5030588;28;19929;-79
2022/05/13 10:52:05;;;;;;;;;;;;;;;;;;5024411;28;20444;-79
2022/05/13 10:54:32;;;;;;;;;;;;;;;;;;5028179;28;20292;-79
2022/05/13 10:57:15;;;;;;;;;;;;;;;;;;5031656;28;19927;-81
2022/05/13 10:59:58;;;;;;;;;;;;;;;;;;5025193;28;19921;-80
2022/05/13 11:02:41;;;;;;;;;;;;;;;;;;5033095;28;19925;-80
2022/05/13 11:05:17;;;;;;;;;;;;;;;;;;5045820;28;20384;-80
2022/05/13 11:07:51;;;;;;;;;;;;;;;;;;5028596;28;19952;-79
2022/05/13 11:10:27;;;;;;;;;;;;;;;;;;5053680;28;19921;-81
2022/05/13 11:12:57;;;;;;;;;;;;;;;;;;5033578;28;20020;-80
2022/05/13 11:15:25;;;;;;;;;;;;;;;;;;5028480;28;20391;-80
2022/05/13 11:17:50;;;;;;;;;;;;;;;;;;5018714;28;19924;-81
2022/05/13 11:20:30;;;;;;;;;;;;;;;;;;5029765;28;20382;-80
2022/05/13 11:23:01;;;;;;;;;;;;;;;;;;5031092;28;19924;-78
2022/05/13 11:28:36;;;;;;;;;;;;;;;;;;5025917;28;19967;-80
2022/05/13 11:31:11;;;;;;;;;;;;;;;;;;5019252;28;19921;-81
2022/05/13 11:33:40;;;;;;;;;;;;;;;;;;5047848;28;19917;-82
2022/05/13 11:36:06;;;;;;;;;;;;;;;;;;5044821;28;20000;-79
2022/05/13 11:38:45;;;;;;;;;;;;;;;;;;5018889;28;20004;-78
2022/05/13 11:41:13;;;;;;;;;;;;;;;;;;5026147;28;20333;-80
2022/05/13 11:43:44;;;;;;;;;;;;;;;;;;5028756;28;19925;-81
2022/05/13 11:46:10;;;;;;;;;;;;;;;;;;5027285;28;19921;-79
2022/05/13 11:48:58;;;;;;;;;;;;;;;;;;5021272;28;19925;-78
2022/05/13 11:51:30;;;;;;;;;;;;;;;;;;5020932;28;19975;-79
2022/05/13 11:53:58;;;;;;;;;;;;;;;;;;5026257;28;19921;-79
2022/05/13 11:56:29;;;;;;;;;;;;;;;;;;5031468;28;20008;-82
2022/05/13 11:59:03;;;;;;;;;;;;;;;;;;5022190;28;19925;-79
2022/05/13 12:01:34;;;;;;;;;;;;;;;;;;5027019;28;19975;-80
2022/05/13 12:04:15;;;;;;;;;;;;;;;;;;5035581;28;19936;-80
2022/05/13 12:06:49;;;;;;;;;;;;;;;;;;5030283;28;20011;-80
2022/05/13 12:09:35;;;;;;;;;;;;;;;;;;5044854;28;19921;-80
2022/05/13 12:12:05;;;;;;;;;;;;;;;;;;5036483;28;20007;-82
2022/05/13 12:14:40;;;;;;;;;;;;;;;;;;5034089;28;19913;-78
2022/05/13 12:17:05;;;;;;;;;;;;;;;;;;5032428;28;19939;-79
2022/05/13 12:19:40;;;;;;;;;;;;;;;;;;5028826;28;19925;-80
2022/05/13 12:22:08;;;;;;;;;;;;;;;;;;5032657;28;19996;-80
2022/05/13 12:24:52;;;;;;;;;;;;;;;;;;5045991;28;19949;-81
2022/05/13 12:27:27;;;;;;;;;;;;;;;;;;5048016;22;19964;-57
2022/05/13 12:29:55;;;;;;;;;;;;;;;;;;5040175;28;19932;-59
2022/05/13 12:32:23;;;;;;;;;;;;;;;;;;5044373;28;19970;-58
2022/05/13 12:37:40;;;;;;;;;;;;;;;;;;5039882;28;19923;-57
2022/05/13 12:40:25;;;;;;;;;;;;;;;;;;5043611;28;20298;-57
2022/05/13 12:42:51;;;;;;;;;;;;;;;;;;5033100;28;19921;-59
2022/05/13 12:45:20;;;;;;;;;;;;;;;;;;5047287;28;19947;-58
2022/05/13 12:47:56;;;;;;;;;;;;;;;;;;5045827;28;19922;-57
2022/05/13 12:50:28;;;;;;;;;;;;;;;;;;5043566;28;19990;-58
2022/05/13 12:52:53;;;;;;;;;;;;;;;;;;5046585;28;20255;-58
2022/05/13 12:55:21;;;;;;;;;;;;;;;;;;5047587;28;19924;-57
2022/05/13 12:57:51;;;;;;;;;;;;;;;;;;5047053;28;20385;-59
2022/05/13 13:00:19;;;;;;;;;;;;;;;;;;5050990;28;19968;-59
2022/05/13 13:02:47;;;;;;;;;;;;;;;;;;5051017;28;19928;-57
2022/05/13 13:05:17;;;;;;;;;;;;;;;;;;5050915;28;19920;-58
2022/05/13 13:07:42;;;;;;;;;;;;;;;;;;5050195;28;19924;-57
2022/05/13 13:10:10;;;;;;;;;;;;;;;;;;5051778;28;19932;-57
2022/05/13 13:12:40;;;;;;;;;;;;;;;;;;5051236;28;19917;-57
2022/05/13 13:15:18;;;;;;;;;;;;;;;;;;5052164;28;19913;-57
2022/05/13 13:18:04;;;;;;;;;;;;;;;;;;5046214;28;19921;-58
2022/05/13 13:20:30;;;;;;;;;;;;;;;;;;5047060;28;19967;-59
2022/05/13 13:22:58;;;;;;;;;;;;;;;;;;5050076;28;19921;-58
2022/05/13 13:25:37;;;;;;;;;;;;;;;;;;5049287;28;20384;-59
2022/05/13 13:28:03;;;;;;;;;;;;;;;;;;5044893;28;19912;-58
2022/05/13 13:30:30;;;;;;;;;;;;;;;;;;5051085;28;19939;-58
2022/05/13 13:32:55;;;;;;;;;;;;;;;;;;5050472;28;20304;-58
2022/05/13 13:35:28;;;;;;;;;;;;;;;;;;5051231;28;20011;-58
2022/05/13 13:37:54;;;;;;;;;;;;;;;;;;5050235;28;19924;-57
2022/05/13 13:40:21;;;;;;;;;;;;;;;;;;5052004;28;19917;-58
2022/05/13 13:42:47;;;;;;;;;;;;;;;;;;5052055;28;20139;-58
2022/05/13 13:45:18;;;;;;;;;;;;;;;;;;5051245;28;20094;-58
2022/05/13 13:47:45;;;;;;;;;;;;;;;;;;5048503;28;19917;-58
2022/05/13 13:50:12;;;;;;;;;;;;;;;;;;5052134;28;20017;-60
2022/05/13 13:52:40;;;;;;;;;;;;;;;;;;5051778;28;20075;-59
2022/05/13 13:55:20;;;;;;;;;;;;;;;;;;5050510;28;19927;-61
2022/05/13 13:57:54;;;;;;;;;;;;;;;;;;5049191;28;19937;-58
2022/05/13 14:00:36;;;;;;;;;;;;;;;;;;5050058;28;19920;-59
2022/05/13 14:03:05;;;;;;;;;;;;;;;;;;5048090;28;20031;-57
2022/05/13 14:05:35;;;;;;;;;;;;;;;;;;5049060;28;19917;-58
2022/05/13 14:08:02;;;;;;;;;;;;;;;;;;5049603;28;19913;-60
2022/05/13 14:10:30;;;;;;;;;;;;;;;;;;5049123;28;20066;-58
2022/05/13 14:12:58;;;;;;;;;;;;;;;;;;5048532;28;20062;-58
2022/05/13 14:15:27;;;;;;;;;;;;;;;;;;5049932;28;20294;-59
2022/05/13 14:17:55;;;;;;;;;;;;;;;;;;5048582;28;20294;-59
2022/05/13 14:20:30;;;;;;;;;;;;;;;;;;5048615;28;19923;-58
2022/05/13 14:22:58;;;;;;;;;;;;;;;;;;5047751;28;19944;-58
2022/05/13 14:25:32;;;;;;;;;;;;;;;;;;5048393;28;19917;-59
2022/05/13 14:27:57;;;;;;;;;;;;;;;;;;5049309;28;19924;-61
2022/05/13 14:30:30;;;;;;;;;;;;;;;;;;5051012;28;20337;-60
2022/05/13 14:32:55;;;;;;;;;;;;;;;;;;5042797;28;19970;-58
2022/05/13 14:35:31;;;;;;;;;;;;;;;;;;5047777;28;20405;-58
2022/05/13 14:37:58;;;;;;;;;;;;;;;;;;5043265;28;20011;-59
2022/05/13 14:40:40;;;;;;;;;;;;;;;;;;5049694;28;19913;-59
2022/05/13 14:43:10;;;;;;;;;;;;;;;;;;5048965;28;19935;-61
2022/05/13 14:45:40;;;;;;;;;;;;;;;;;;5049087;28;20395;-57
2022/05/13 14:48:23;;;;;;;;;;;;;;;;;;5048225;28;20073;-58
2022/05/13 14:50:59;;;;;;;;;;;;;;;;;;5050735;28;19917;-60
2022/05/13 14:53:26;;;;;;;;;;;;;;;;;;5045278;28;19924;-59
2022/05/13 14:55:53;;;;;;;;;;;;;;;;;;5049994;28;19917;-60
2022/05/13 14:58:27;;;;;;;;;;;;;;;;;;5049766;28;19917;-59
2022/05/13 15:00:55;;;;;;;;;;;;;;;;;;5050659;28;20357;-59
2022/05/13 15:03:22;;;;;;;;;;;;;;;;;;5049101;28;19951;-59
2022/05/13 15:05:47;;;;;;;;;;;;;;;;;;5048770;28;19920;-60
2022/05/13 15:08:36;;;;;;;;;;;;;;;;;;5049309;28;20343;-59
2022/05/13 15:11:02;;;;;;;;;;;;;;;;;;5028353;28;19928;-58
2022/05/13 15:13:27;;;;;;;;;;;;;;;;;;5048865;28;20058;-59
2022/05/13 15:15:53;;;;;;;;;;;;;;;;;;5050098;28;20413;-59
2022/05/13 15:18:19;;;;;;;;;;;;;;;;;;5048194;28;19917;-58
2022/05/13 15:20:44;;;;;;;;;;;;;;;;;;5048068;28;20091;-59
2022/05/13 15:23:10;;;;;;;;;;;;;;;;;;5049388;28;20032;-58
2022/05/13 15:25:39;;;;;;;;;;;;;;;;;;5049523;28;20281;-59
2022/05/13 15:28:05;;;;;;;;;;;;;;;;;;5049414;28;19971;-58
2022/05/13 15:30:30;;;;;;;;;;;;;;;;;;5048746;28;19952;-59
2022/05/13 15:32:55;;;;;;;;;;;;;;;;;;5049354;28;19921;-57
2022/05/13 15:35:21;;;;;;;;;;;;;;;;;;5049190;28;20285;-57
2022/05/13 15:37:46;;;;;;;;;;;;;;;;;;5048685;28;19928;-59
2022/05/13 15:40:11;;;;;;;;;;;;;;;;;;5050091;28;19913;-58
2022/05/13 15:42:37;;;;;;;;;;;;;;;;;;5049644;28;20003;-59
2022/05/13 15:45:03;;;;;;;;;;;;;;;;;;5049311;28;19925;-58
2022/05/13 15:47:29;;;;;;;;;;;;;;;;;;5047746;28;20348;-58
2022/05/13 15:52:43;;;;;;;;;;;;;;;;;;5049715;28;19936;-60
2022/05/13 15:55:08;;;;;;;;;;;;;;;;;;5049624;28;19919;-59
2022/05/13 15:57:39;;;;;;;;;;;;;;;;;;5047555;28;19917;-58
2022/05/13 16:00:06;;;;;;;;;;;;;;;;;;5049150;28;20405;-59
2022/05/13 16:02:32;;;;;;;;;;;;;;;;;;5048738;28;20356;-59
2022/05/13 16:04:57;;;;;;;;;;;;;;;;;;5049300;28;19913;-59
2022/05/13 16:07:22;;;;;;;;;;;;;;;;;;5048539;28;19923;-59
2022/05/13 16:09:48;;;;;;;;;;;;;;;;;;5049603;28;20011;-59
2022/05/13 16:12:17;;;;;;;;;;;;;;;;;;5049288;28;19919;-59
2022/05/13 16:14:42;;;;;;;;;;;;;;;;;;5048630;28;19944;-59
2022/05/13 16:17:10;;;;;;;;;;;;;;;;;;5048533;28;19956;-60
2022/05/13 16:19:36;;;;;;;;;;;;;;;;;;5049806;28;19917;-59
2022/05/13 16:22:03;;;;;;;;;;;;;;;;;;5048749;28;20393;-60
2022/05/13 16:24:32;;;;;;;;;;;;;;;;;;5048802;28;19920;-60
2022/05/13 16:26:57;;;;;;;;;;;;;;;;;;5048885;28;19948;-59
2022/05/13 16:29:23;;;;;;;;;;;;;;;;;;5048431;28;20338;-61
2022/05/13 16:31:49;;;;;;;;;;;;;;;;;;5048576;28;19917;-59
2022/05/13 16:34:14;;;;;;;;;;;;;;;;;;5048512;28;20369;-59
2022/05/13 16:39:24;;;;;;;;;;;;;;;;;;5048773;28;19967;-59
2022/05/13 16:41:49;;;;;;;;;;;;;;;;;;5048862;28;20188;-59
2022/05/13 16:44:15;;;;;;;;;;;;;;;;;;5048221;28;20294;-58
2022/05/13 16:46:40;;;;;;;;;;;;;;;;;;5048870;28;19948;-58
2022/05/13 16:49:05;;;;;;;;;;;;;;;;;;5047683;28;20231;-59
2022/05/13 16:51:31;;;;;;;;;;;;;;;;;;5048022;28;19924;-60
2022/05/13 16:53:56;;;;;;;;;;;;;;;;;;5048362;28;20009;-59
2022/05/13 16:56:22;;;;;;;;;;;;;;;;;;5049167;28;20354;-59
2022/05/13 16:58:48;;;;;;;;;;;;;;;;;;5048140;28;20439;-59
2022/05/13 17:01:13;;;;;;;;;;;;;;;;;;5048551;28;20007;-59
2022/05/13 17:03:40;;;;;;;;;;;;;;;;;;5048052;28;19920;-59
2022/05/13 17:06:06;;;;;;;;;;;;;;;;;;5048607;28;20392;-60
2022/05/13 17:16:12;;;;;;;;;;;;;;;;;;5047619;28;20427;-59
2022/05/13 17:16:45;;;;;;;;;;;;;;;;;;5048689;28;20298;-59
2022/05/13 17:19:17;;;;;;;;;;;;;;;;;;5048030;28;19917;-58
2022/05/13 17:21:44;;;;;;;;;;;;;;;;;;5047421;28;20018;-60
2022/05/13 17:24:15;;;;;;;;;;;;;;;;;;5047602;28;19923;-58
2022/05/13 17:26:41;;;;;;;;;;;;;;;;;;5047793;28;20003;-57
2022/05/13 17:29:06;;;;;;;;;;;;;;;;;;5047747;28;20019;-57
2022/05/13 17:31:32;;;;;;;;;;;;;;;;;;5046839;28;20006;-59
2022/05/13 17:33:58;;;;;;;;;;;;;;;;;;5048495;28;19959;-58